createdAt,value
2019-05-14T00:00:05.476Z,5.19
2019-05-14T00:01:05.552Z,5.12
2019-05-14T00:02:05.965Z,5.12
2019-05-14T00:03:05.095Z,5.12
2019-05-14T00:04:05.886Z,5.12
2019-05-14T00:05:05.796Z,5.12
2019-05-14T00:06:05.657Z,5.12
2019-05-14T00:07:05.664Z,5.12
2019-05-14T00:08:05.313Z,5.12
2019-05-14T00:09:05.797Z,5.12
2019-05-14T00:10:05.582Z,5.06
2019-05-14T00:11:05.551Z,5.12
2019-05-14T00:12:05.728Z,5.06
2019-05-14T00:13:05.152Z,5.06
2019-05-14T00:14:05.798Z,5.06
2019-05-14T00:15:05.885Z,5.06
2019-05-14T00:16:06.038Z,5.06
2019-05-14T00:17:05.248Z,5.06
2019-05-14T00:18:05.327Z,5.06
2019-05-14T00:19:05.790Z,5.00
2019-05-14T00:20:09.775Z,5.00
2019-05-14T00:21:05.324Z,5.00
2019-05-14T00:22:05.398Z,4.94
2019-05-14T00:23:05.719Z,4.94
2019-05-14T00:24:05.320Z,4.94
2019-05-14T00:25:05.793Z,4.88
2019-05-14T00:26:05.160Z,4.94
2019-05-14T00:27:05.666Z,4.88
2019-05-14T00:28:05.727Z,4.88
2019-05-14T00:29:05.797Z,4.88
2019-05-14T00:30:05.321Z,4.88
2019-05-14T00:31:05.988Z,4.88
2019-05-14T00:32:05.083Z,4.81
2019-05-14T00:33:05.405Z,4.81
2019-05-14T00:34:05.873Z,4.81
2019-05-14T00:35:05.487Z,4.81
2019-05-14T00:36:06.441Z,4.81
2019-05-14T00:37:05.821Z,4.75
2019-05-14T00:38:05.813Z,4.75
2019-05-14T00:39:05.964Z,4.75
2019-05-14T00:40:05.284Z,4.69
2019-05-14T00:41:05.321Z,4.69
2019-05-14T00:42:05.968Z,4.69
2019-05-14T00:43:05.338Z,4.69
2019-05-14T00:44:05.489Z,4.69
2019-05-14T00:45:05.738Z,4.62
2019-05-14T00:46:05.706Z,4.62
2019-05-14T00:47:05.239Z,4.62
2019-05-14T00:48:05.545Z,4.62
2019-05-14T00:49:05.069Z,4.62
2019-05-14T00:50:05.164Z,4.62
2019-05-14T00:51:05.565Z,4.62
2019-05-14T00:52:05.871Z,4.56
2019-05-14T00:53:05.335Z,4.56
2019-05-14T00:54:05.410Z,4.56
2019-05-14T00:55:05.807Z,4.56
2019-05-14T00:56:05.794Z,4.50
2019-05-14T00:57:05.404Z,4.50
2019-05-14T00:58:05.004Z,4.50
2019-05-14T00:59:05.715Z,4.50
2019-05-14T01:00:05.258Z,4.50
2019-05-14T01:01:05.475Z,4.44
2019-05-14T01:02:05.804Z,4.44
2019-05-14T01:03:05.234Z,4.44
2019-05-14T01:04:05.745Z,4.38
2019-05-14T01:05:05.741Z,4.38
2019-05-14T01:06:05.963Z,4.38
2019-05-14T01:07:05.792Z,4.38
2019-05-14T01:08:05.328Z,4.38
2019-05-14T01:09:05.312Z,4.31
2019-05-14T01:10:05.800Z,4.31
2019-05-14T01:11:05.410Z,4.31
2019-05-14T01:12:05.590Z,4.25
2019-05-14T01:13:05.563Z,4.25
2019-05-14T01:14:05.555Z,4.31
2019-05-14T01:15:09.711Z,4.25
2019-05-14T01:16:05.416Z,4.25
2019-05-14T01:17:05.479Z,4.25
2019-05-14T01:18:05.887Z,4.25
2019-05-14T01:19:05.965Z,4.25
2019-05-14T01:20:06.055Z,4.19
2019-05-14T01:21:05.077Z,4.19
2019-05-14T01:22:05.239Z,4.19
2019-05-14T01:23:05.163Z,4.19
2019-05-14T01:24:05.727Z,4.19
2019-05-14T01:25:05.955Z,4.19
2019-05-14T01:26:05.575Z,4.19
2019-05-14T01:27:05.554Z,4.12
2019-05-14T01:28:05.072Z,4.12
2019-05-14T01:29:05.713Z,4.12
2019-05-14T01:30:05.957Z,4.12
2019-05-14T01:31:05.166Z,4.12
2019-05-14T01:32:05.245Z,4.12
2019-05-14T01:33:05.406Z,4.06
2019-05-14T01:34:05.725Z,4.06
2019-05-14T01:35:05.161Z,4.06
2019-05-14T01:36:05.407Z,4.00
2019-05-14T01:37:05.366Z,4.00
2019-05-14T01:38:05.418Z,4.00
2019-05-14T01:39:05.410Z,4.00
2019-05-14T01:40:05.486Z,3.94
2019-05-14T01:42:05.851Z,3.94
2019-05-14T01:43:05.552Z,3.94
2019-05-14T01:44:05.243Z,3.88
2019-05-14T01:45:05.738Z,3.88
2019-05-14T01:46:05.643Z,3.88
2019-05-14T01:47:06.135Z,3.88
2019-05-14T01:48:05.399Z,3.81
2019-05-14T01:49:05.241Z,3.81
2019-05-14T01:50:05.628Z,3.81
2019-05-14T01:51:05.710Z,3.81
2019-05-14T01:52:05.274Z,3.81
2019-05-14T01:53:05.405Z,3.75
2019-05-14T01:54:05.474Z,3.75
2019-05-14T01:55:05.976Z,3.75
2019-05-14T01:56:05.736Z,3.75
2019-05-14T01:57:05.812Z,3.75
2019-05-14T01:58:05.795Z,3.75
2019-05-14T01:59:05.940Z,3.69
2019-05-14T02:00:06.058Z,3.69
2019-05-14T02:01:05.257Z,3.69
2019-05-14T02:02:05.160Z,3.69
2019-05-14T02:03:06.197Z,3.69
2019-05-14T02:04:06.925Z,3.69
2019-05-14T02:05:05.093Z,3.69
2019-05-14T02:06:05.322Z,3.69
2019-05-14T02:07:05.396Z,3.69
2019-05-14T02:08:05.801Z,3.69
2019-05-14T02:09:05.226Z,3.62
2019-05-14T02:10:05.967Z,3.69
2019-05-14T02:11:05.160Z,3.69
2019-05-14T02:12:05.401Z,3.69
2019-05-14T02:13:05.155Z,3.69
2019-05-14T02:14:05.665Z,3.69
2019-05-14T02:15:05.095Z,3.75
2019-05-14T02:16:05.336Z,3.75
2019-05-14T02:17:05.570Z,3.75
2019-05-14T02:18:05.636Z,3.75
2019-05-14T02:19:05.876Z,3.75
2019-05-14T02:20:05.322Z,3.75
2019-05-14T02:21:05.645Z,3.75
2019-05-14T02:22:05.794Z,3.75
2019-05-14T02:23:05.953Z,3.81
2019-05-14T02:24:05.405Z,3.75
2019-05-14T02:25:05.408Z,3.81
2019-05-14T02:26:05.564Z,3.81
2019-05-14T02:27:05.670Z,3.81
2019-05-14T02:28:05.639Z,3.81
2019-05-14T02:29:05.073Z,3.88
2019-05-14T02:30:05.173Z,3.88
2019-05-14T02:31:05.321Z,3.88
2019-05-14T02:32:05.640Z,3.88
2019-05-14T02:33:05.648Z,3.88
2019-05-14T02:34:05.798Z,3.94
2019-05-14T02:35:05.809Z,3.94
2019-05-14T02:36:05.798Z,3.94
2019-05-14T02:37:05.185Z,3.94
2019-05-14T02:38:05.789Z,3.94
2019-05-14T02:39:09.232Z,4.00
2019-05-14T02:40:05.184Z,4.00
2019-05-14T02:41:05.327Z,4.00
2019-05-14T02:42:05.403Z,4.00
2019-05-14T02:43:05.063Z,4.00
2019-05-14T02:44:05.168Z,4.00
2019-05-14T02:45:08.261Z,4.06
2019-05-14T02:46:11.695Z,4.06
2019-05-14T02:47:05.806Z,4.06
2019-05-14T02:48:05.816Z,4.06
2019-05-14T02:49:05.171Z,4.06
2019-05-14T02:50:05.080Z,4.06
2019-05-14T02:51:05.966Z,4.12
2019-05-14T02:52:09.566Z,4.12
2019-05-14T02:53:05.978Z,4.12
2019-05-14T02:54:05.146Z,4.12
2019-05-14T02:55:08.528Z,4.12
2019-05-14T02:56:05.980Z,4.12
2019-05-14T02:57:05.063Z,4.12
2019-05-14T02:58:05.261Z,4.12
2019-05-14T02:59:05.722Z,4.19
2019-05-14T03:00:05.873Z,4.19
2019-05-14T03:01:09.226Z,4.19
2019-05-14T03:02:05.956Z,4.19
2019-05-14T03:03:05.649Z,4.19
2019-05-14T03:04:08.923Z,4.19
2019-05-14T03:05:05.306Z,4.19
2019-05-14T03:06:05.391Z,4.25
2019-05-14T03:07:05.967Z,4.25
2019-05-14T03:08:08.761Z,4.25
2019-05-14T03:09:05.487Z,4.25
2019-05-14T03:10:05.243Z,4.25
2019-05-14T03:11:05.713Z,4.25
2019-05-14T03:12:05.957Z,4.25
2019-05-14T03:13:09.376Z,4.25
2019-05-14T03:14:05.173Z,4.25
2019-05-14T03:15:05.231Z,4.25
2019-05-14T03:16:20.647Z,4.25
2019-05-14T03:17:05.585Z,4.25
2019-05-14T03:18:05.247Z,4.25
2019-05-14T03:19:05.257Z,4.25
2019-05-14T03:20:05.234Z,4.25
2019-05-14T03:21:05.795Z,4.25
2019-05-14T03:22:09.143Z,4.31
2019-05-14T03:23:08.850Z,4.25
2019-05-14T03:24:05.577Z,4.25
2019-05-14T03:25:05.654Z,4.25
2019-05-14T03:26:09.564Z,4.44
2019-05-14T03:27:05.747Z,4.44
2019-05-14T03:28:08.968Z,4.38
2019-05-14T03:29:05.322Z,4.38
2019-05-14T03:30:05.399Z,4.44
2019-05-14T03:31:05.815Z,4.44
2019-05-14T03:32:10.918Z,4.38
2019-05-14T03:33:05.812Z,4.44
2019-05-14T03:34:05.182Z,4.38
2019-05-14T03:35:05.686Z,4.38
2019-05-14T03:36:07.999Z,4.38
2019-05-14T03:37:12.002Z,4.50
2019-05-14T03:38:05.336Z,4.69
2019-05-14T03:39:05.498Z,4.69
2019-05-14T03:40:08.912Z,4.62
2019-05-14T03:41:08.544Z,4.56
2019-05-14T03:42:06.037Z,4.56
2019-05-14T03:43:05.176Z,4.56
2019-05-14T03:44:05.170Z,4.50
2019-05-14T03:45:08.421Z,4.44
2019-05-14T03:46:09.448Z,4.44
2019-05-14T03:47:09.264Z,4.38
2019-05-14T03:48:05.902Z,4.38
2019-05-14T03:49:09.067Z,4.44
2019-05-14T03:50:05.814Z,4.44
2019-05-14T03:51:08.846Z,4.44
2019-05-14T03:52:05.177Z,4.62
2019-05-14T03:53:05.809Z,4.75
2019-05-14T03:54:07.592Z,4.62
2019-05-14T03:55:05.218Z,5.06
2019-05-14T03:56:05.800Z,4.94
2019-05-14T03:57:05.804Z,4.75
2019-05-14T03:58:05.508Z,4.69
2019-05-14T03:59:05.761Z,4.62
2019-05-14T04:00:05.231Z,4.62
2019-05-14T04:01:05.406Z,4.56
2019-05-14T04:02:05.239Z,4.62
2019-05-14T04:03:05.483Z,4.62
2019-05-14T04:04:05.244Z,4.62
2019-05-14T04:05:05.673Z,4.62
2019-05-14T04:06:05.868Z,4.56
2019-05-14T04:07:09.221Z,4.56
2019-05-14T04:08:05.655Z,4.62
2019-05-14T04:09:09.239Z,4.69
2019-05-14T04:10:05.713Z,4.81
2019-05-14T04:11:05.000Z,4.94
2019-05-14T04:12:05.173Z,5.06
2019-05-14T04:13:05.241Z,5.12
2019-05-14T04:14:05.561Z,5.25
2019-05-14T04:15:06.007Z,5.38
2019-05-14T04:16:05.575Z,5.50
2019-05-14T04:17:09.463Z,5.69
2019-05-14T04:18:05.391Z,5.88
2019-05-14T04:19:05.563Z,6.00
2019-05-14T04:20:09.012Z,6.19
2019-05-14T04:21:05.093Z,6.31
2019-05-14T04:22:05.329Z,6.44
2019-05-14T04:23:08.970Z,6.62
2019-05-14T04:24:05.245Z,6.75
2019-05-14T04:25:05.886Z,6.88
2019-05-14T04:26:09.037Z,7.06
2019-05-14T04:27:08.959Z,7.25
2019-05-14T04:28:05.974Z,7.44
2019-05-14T04:29:06.136Z,7.62
2019-05-14T04:30:05.092Z,7.75
2019-05-14T04:31:05.333Z,7.94
2019-05-14T04:32:05.410Z,8.12
2019-05-14T04:33:05.727Z,8.25
2019-05-14T04:34:05.160Z,8.44
2019-05-14T04:35:05.181Z,8.62
2019-05-14T04:36:05.334Z,8.75
2019-05-14T04:37:05.648Z,8.94
2019-05-14T04:38:05.834Z,9.12
2019-05-14T04:39:09.058Z,9.31
2019-05-14T04:40:05.638Z,9.44
2019-05-14T04:41:05.725Z,9.62
2019-05-14T04:42:09.071Z,9.88
2019-05-14T04:43:05.353Z,10.06
2019-05-14T04:44:05.246Z,10.25
2019-05-14T04:45:06.014Z,10.44
2019-05-14T04:46:05.550Z,10.62
2019-05-14T04:47:22.427Z,10.81
2019-05-14T04:48:23.821Z,11.00
2019-05-14T04:49:05.718Z,11.25
2019-05-14T04:50:05.252Z,11.44
2019-05-14T04:51:05.505Z,11.56
2019-05-14T04:52:05.658Z,11.81
2019-05-14T04:53:08.736Z,12.00
2019-05-14T04:54:05.168Z,12.19
2019-05-14T04:55:05.178Z,12.38
2019-05-14T04:56:05.328Z,12.56
2019-05-14T04:57:05.659Z,12.75
2019-05-14T04:58:06.146Z,12.88
2019-05-14T04:59:05.234Z,13.00
2019-05-14T05:00:05.122Z,13.19
2019-05-14T05:01:05.466Z,13.38
2019-05-14T05:02:05.424Z,13.56
2019-05-14T05:03:08.340Z,13.62
2019-05-14T05:04:05.384Z,13.81
2019-05-14T05:05:08.665Z,13.94
2019-05-14T05:06:05.583Z,14.12
2019-05-14T05:07:05.824Z,14.31
2019-05-14T05:08:08.713Z,14.44
2019-05-14T05:09:05.177Z,14.69
2019-05-14T05:10:05.971Z,14.81
2019-05-14T05:11:05.169Z,15.00
2019-05-14T05:12:08.699Z,15.12
2019-05-14T05:13:05.740Z,15.25
2019-05-14T05:14:08.466Z,15.31
2019-05-14T05:15:05.578Z,15.44
2019-05-14T05:16:06.092Z,15.62
2019-05-14T05:17:05.174Z,15.94
2019-05-14T05:18:05.233Z,16.25
2019-05-14T05:19:05.496Z,16.56
2019-05-14T05:20:05.648Z,16.88
2019-05-14T05:21:05.570Z,17.06
2019-05-14T05:22:05.336Z,17.62
2019-05-14T05:23:05.105Z,18.06
2019-05-14T05:24:05.974Z,18.56
2019-05-14T05:25:05.644Z,18.94
2019-05-14T05:26:05.811Z,19.44
2019-05-14T05:27:05.806Z,19.56
2019-05-14T05:28:05.084Z,19.94
2019-05-14T05:29:06.784Z,20.62
2019-05-14T05:30:07.804Z,21.00
2019-05-14T05:31:09.166Z,21.12
2019-05-14T05:32:05.809Z,21.06
2019-05-14T05:33:05.078Z,21.62
2019-05-14T05:34:05.663Z,21.56
2019-05-14T05:35:05.827Z,21.94
2019-05-14T05:36:05.888Z,22.44
2019-05-14T05:37:08.261Z,22.44
2019-05-14T05:38:05.085Z,22.94
2019-05-14T05:39:05.411Z,23.06
2019-05-14T05:40:05.561Z,23.31
2019-05-14T05:41:05.591Z,23.38
2019-05-14T05:42:05.573Z,23.00
2019-05-14T05:43:05.168Z,23.12
2019-05-14T05:44:05.483Z,23.00
2019-05-14T05:45:07.884Z,22.88
2019-05-14T05:46:05.726Z,23.00
2019-05-14T05:47:05.401Z,23.44
2019-05-14T05:48:08.037Z,23.62
2019-05-14T05:49:07.872Z,23.69
2019-05-14T05:50:05.751Z,23.75
2019-05-14T05:51:06.042Z,23.81
2019-05-14T05:52:05.564Z,23.94
2019-05-14T05:53:05.085Z,23.94
2019-05-14T05:54:05.317Z,23.94
2019-05-14T05:55:05.472Z,23.88
2019-05-14T05:56:05.582Z,23.62
2019-05-14T05:57:05.633Z,23.06
2019-05-14T05:58:05.806Z,23.00
2019-05-14T05:59:05.075Z,22.69
2019-05-14T06:00:05.903Z,22.56
2019-05-14T06:01:05.237Z,22.56
2019-05-14T06:02:05.167Z,22.62
2019-05-14T06:03:05.443Z,22.31
2019-05-14T06:04:05.486Z,22.12
2019-05-14T06:05:07.853Z,22.00
2019-05-14T06:06:05.363Z,21.81
2019-05-14T06:07:05.640Z,21.69
2019-05-14T06:08:08.428Z,21.81
2019-05-14T06:09:05.829Z,21.88
2019-05-14T06:10:07.890Z,21.44
2019-05-14T06:11:05.167Z,20.69
2019-05-14T06:12:08.443Z,20.25
2019-05-14T06:13:05.314Z,19.88
2019-05-14T06:14:07.790Z,19.69
2019-05-14T06:15:05.599Z,19.44
2019-05-14T06:16:05.560Z,19.31
2019-05-14T06:17:08.295Z,19.25
2019-05-14T06:18:14.913Z,19.06
2019-05-14T06:19:08.156Z,18.94
2019-05-14T06:20:05.560Z,18.75
2019-05-14T06:21:05.989Z,18.62
2019-05-14T06:22:05.190Z,18.44
2019-05-14T06:23:05.476Z,18.31
2019-05-14T06:24:05.648Z,18.19
2019-05-14T06:25:10.471Z,18.25
2019-05-14T06:26:11.011Z,18.44
2019-05-14T06:27:05.132Z,18.19
2019-05-14T06:28:05.317Z,17.94
2019-05-14T06:29:05.234Z,17.62
2019-05-14T06:30:05.247Z,17.38
2019-05-14T06:31:05.418Z,17.25
2019-05-14T06:32:05.802Z,17.31
2019-05-14T06:33:05.158Z,17.31
2019-05-14T06:34:05.645Z,17.25
2019-05-14T06:35:05.810Z,17.19
2019-05-14T06:36:05.426Z,17.06
2019-05-14T06:37:05.479Z,16.94
2019-05-14T06:38:05.888Z,16.81
2019-05-14T06:39:09.024Z,16.62
2019-05-14T06:40:05.576Z,16.44
2019-05-14T06:41:05.242Z,16.31
2019-05-14T06:42:05.400Z,16.19
2019-05-14T06:43:05.491Z,16.12
2019-05-14T06:44:05.559Z,16.00
2019-05-14T06:45:05.803Z,15.88
2019-05-14T06:46:05.506Z,15.75
2019-05-14T06:47:05.125Z,15.56
2019-05-14T06:48:05.146Z,15.44
2019-05-14T06:49:05.403Z,15.50
2019-05-14T06:50:05.733Z,15.31
2019-05-14T06:51:08.775Z,15.31
2019-05-14T06:52:05.164Z,15.44
2019-05-14T06:53:05.496Z,15.50
2019-05-14T06:54:05.683Z,15.56
2019-05-14T06:55:05.737Z,15.44
2019-05-14T06:56:07.986Z,15.25
2019-05-14T06:57:05.246Z,15.06
2019-05-14T06:58:05.422Z,14.88
2019-05-14T06:59:05.725Z,14.81
2019-05-14T07:00:07.952Z,14.69
2019-05-14T07:01:05.897Z,14.69
2019-05-14T07:02:05.897Z,14.56
2019-05-14T07:03:05.821Z,14.31
2019-05-14T07:04:05.485Z,14.12
2019-05-14T07:05:05.332Z,14.00
2019-05-14T07:06:05.813Z,13.94
2019-05-14T07:07:05.246Z,13.75
2019-05-14T07:08:05.339Z,13.69
2019-05-14T07:09:08.040Z,13.62
2019-05-14T07:10:05.623Z,13.56
2019-05-14T07:11:08.079Z,13.56
2019-05-14T07:12:05.651Z,13.44
2019-05-14T07:13:08.382Z,13.25
2019-05-14T07:14:08.831Z,13.19
2019-05-14T07:15:05.789Z,13.12
2019-05-14T07:16:05.810Z,13.06
2019-05-14T07:17:06.037Z,13.06
2019-05-14T07:18:05.249Z,12.94
2019-05-14T07:19:05.407Z,13.06
2019-05-14T07:20:05.161Z,13.06
2019-05-14T07:21:05.407Z,13.06
2019-05-14T07:22:05.479Z,13.00
2019-05-14T07:23:07.990Z,13.00
2019-05-14T07:24:05.564Z,13.00
2019-05-14T07:25:05.711Z,13.00
2019-05-14T07:26:05.310Z,13.00
2019-05-14T07:27:05.666Z,13.00
2019-05-14T07:28:05.880Z,13.06
2019-05-14T07:29:11.197Z,13.00
2019-05-14T07:30:05.647Z,13.00
2019-05-14T07:31:05.669Z,13.12
2019-05-14T07:32:05.723Z,13.31
2019-05-14T07:33:05.672Z,13.31
2019-05-14T07:34:05.567Z,13.25
2019-05-14T07:35:05.711Z,13.19
2019-05-14T07:36:05.558Z,13.25
2019-05-14T07:37:05.882Z,13.25
2019-05-14T07:38:08.718Z,13.31
2019-05-14T07:39:05.083Z,13.25
2019-05-14T07:40:08.685Z,13.25
2019-05-14T07:41:05.731Z,13.31
2019-05-14T07:42:05.968Z,13.25
2019-05-14T07:43:05.317Z,13.12
2019-05-14T07:44:05.393Z,13.19
2019-05-14T07:45:05.885Z,13.31
2019-05-14T07:46:05.276Z,13.25
2019-05-14T07:47:05.350Z,13.25
2019-05-14T07:48:05.734Z,13.19
2019-05-14T07:49:09.095Z,13.19
2019-05-14T07:50:05.278Z,13.12
2019-05-14T07:51:05.237Z,13.06
2019-05-14T07:52:05.475Z,13.06
2019-05-14T07:53:05.630Z,13.06
2019-05-14T07:54:08.126Z,13.00
2019-05-14T07:55:05.487Z,13.00
2019-05-14T07:56:05.725Z,13.00
2019-05-14T07:57:08.426Z,13.06
2019-05-14T07:58:08.166Z,13.25
2019-05-14T07:59:05.463Z,13.25
2019-05-14T08:00:05.490Z,13.25
2019-05-14T08:01:05.649Z,13.19
2019-05-14T08:02:05.626Z,13.12
2019-05-14T08:03:05.563Z,13.19
2019-05-14T08:04:05.728Z,13.19
2019-05-14T08:05:05.325Z,13.44
2019-05-14T08:06:05.372Z,13.50
2019-05-14T08:07:05.645Z,13.50
2019-05-14T08:08:07.694Z,13.44
2019-05-14T08:09:05.249Z,13.44
2019-05-14T08:10:06.135Z,13.44
2019-05-14T08:11:05.156Z,13.44
2019-05-14T08:12:05.352Z,13.38
2019-05-14T08:13:05.316Z,13.38
2019-05-14T08:14:05.647Z,13.56
2019-05-14T08:15:15.088Z,13.50
2019-05-14T08:16:05.312Z,13.31
2019-05-14T08:17:05.638Z,13.12
2019-05-14T08:18:05.251Z,13.06
2019-05-14T08:19:19.701Z,12.94
2019-05-14T08:20:06.129Z,12.88
2019-05-14T08:21:05.249Z,12.81
2019-05-14T08:22:05.879Z,12.69
2019-05-14T08:23:05.504Z,12.62
2019-05-14T08:24:05.391Z,12.62
2019-05-14T08:25:05.553Z,12.62
2019-05-14T08:26:07.784Z,12.50
2019-05-14T08:27:05.887Z,12.44
2019-05-14T08:28:05.157Z,12.38
2019-05-14T08:29:05.229Z,12.31
2019-05-14T08:30:05.083Z,12.31
2019-05-14T08:31:05.239Z,12.31
2019-05-14T08:32:08.322Z,12.31
2019-05-14T08:33:05.479Z,12.25
2019-05-14T08:34:06.603Z,12.19
2019-05-14T08:35:05.252Z,12.19
2019-05-14T08:36:05.249Z,12.19
2019-05-14T08:37:05.533Z,12.19
2019-05-14T08:38:09.161Z,12.12
2019-05-14T08:39:05.565Z,12.06
2019-05-14T08:40:05.500Z,12.06
2019-05-14T08:41:05.157Z,12.12
2019-05-14T08:42:08.266Z,12.12
2019-05-14T08:43:06.045Z,12.25
2019-05-14T08:44:05.326Z,12.25
2019-05-14T08:45:10.229Z,12.38
2019-05-14T08:46:05.161Z,12.44
2019-05-14T08:47:05.498Z,12.50
2019-05-14T08:48:05.182Z,12.50
2019-05-14T08:49:05.549Z,12.56
2019-05-14T08:50:08.386Z,12.69
2019-05-14T08:51:05.722Z,12.81
2019-05-14T08:52:08.596Z,12.94
2019-05-14T08:53:05.973Z,13.00
2019-05-14T08:54:08.139Z,13.06
2019-05-14T08:55:09.303Z,13.19
2019-05-14T08:56:05.561Z,13.25
2019-05-14T08:57:05.451Z,13.25
2019-05-14T08:58:09.896Z,13.19
2019-05-14T08:59:05.164Z,13.19
2019-05-14T09:00:05.269Z,13.19
2019-05-14T09:01:05.403Z,13.19
2019-05-14T09:02:06.464Z,13.19
2019-05-14T09:03:08.332Z,13.19
2019-05-14T09:04:08.767Z,13.25
2019-05-14T09:05:09.327Z,13.25
2019-05-14T09:06:05.388Z,13.25
2019-05-14T09:07:05.736Z,13.31
2019-05-14T09:08:05.889Z,13.69
2019-05-14T09:09:06.054Z,13.75
2019-05-14T09:10:08.464Z,13.75
2019-05-14T09:11:05.888Z,13.69
2019-05-14T09:12:12.109Z,13.69
2019-05-14T09:13:05.261Z,13.62
2019-05-14T09:14:05.260Z,13.62
2019-05-14T09:15:05.228Z,13.69
2019-05-14T09:16:05.559Z,13.75
2019-05-14T09:17:05.831Z,13.81
2019-05-14T09:18:05.910Z,13.88
2019-05-14T09:19:05.079Z,15.12
2019-05-14T09:20:07.091Z,15.19
2019-05-14T09:21:05.492Z,15.69
2019-05-14T09:22:06.063Z,16.69
2019-05-14T09:23:08.935Z,16.94
2019-05-14T09:24:05.242Z,17.62
2019-05-14T09:25:08.273Z,17.38
2019-05-14T09:26:05.881Z,17.44
2019-05-14T09:27:05.541Z,17.06
2019-05-14T09:28:05.489Z,17.19
2019-05-14T09:29:19.224Z,16.94
2019-05-14T09:30:05.956Z,17.19
2019-05-14T09:31:05.224Z,16.94
2019-05-14T09:32:05.080Z,17.12
2019-05-14T09:33:05.263Z,17.19
2019-05-14T09:34:05.076Z,17.25
2019-05-14T09:35:05.721Z,16.75
2019-05-14T09:36:14.502Z,16.69
2019-05-14T09:37:05.266Z,17.06
2019-05-14T09:38:05.081Z,17.12
2019-05-14T09:39:05.560Z,16.88
2019-05-14T09:40:05.726Z,16.81
2019-05-14T09:41:11.980Z,16.44
2019-05-14T09:42:07.935Z,16.25
2019-05-14T09:43:05.892Z,16.06
2019-05-14T09:44:05.716Z,16.12
2019-05-14T09:45:10.493Z,16.06
2019-05-14T09:46:06.059Z,16.06
2019-05-14T09:47:08.247Z,16.00
2019-05-14T09:48:05.235Z,15.88
2019-05-14T09:49:07.538Z,15.88
2019-05-14T09:50:16.251Z,15.69
2019-05-14T09:51:05.166Z,15.75
2019-05-14T09:52:05.817Z,16.31
2019-05-14T09:53:05.897Z,16.25
2019-05-14T09:54:08.497Z,17.12
2019-05-14T09:55:05.248Z,17.12
2019-05-14T09:56:05.155Z,17.75
2019-05-14T09:57:08.139Z,17.56
2019-05-14T09:58:05.405Z,17.44
2019-05-14T09:59:05.566Z,17.38
2019-05-14T10:00:05.886Z,18.38
2019-05-14T10:01:08.287Z,19.38
2019-05-14T10:02:06.148Z,19.88
2019-05-14T10:03:09.256Z,19.50
2019-05-14T10:04:05.170Z,20.50
2019-05-14T10:05:05.652Z,21.50
2019-05-14T10:06:06.046Z,21.19
2019-05-14T10:07:05.173Z,21.25
2019-05-14T10:08:05.424Z,21.44
2019-05-14T10:09:05.565Z,20.75
2019-05-14T10:10:05.570Z,20.56
2019-05-14T10:11:05.887Z,19.62
2019-05-14T10:12:05.568Z,19.00
2019-05-14T10:13:09.355Z,18.38
2019-05-14T10:14:05.340Z,18.50
2019-05-14T10:15:08.619Z,19.06
2019-05-14T10:16:05.268Z,18.25
2019-05-14T10:17:06.046Z,17.56
2019-05-14T10:18:10.997Z,17.44
2019-05-14T10:19:05.966Z,17.12
2019-05-14T10:20:05.194Z,17.06
2019-05-14T10:21:05.327Z,16.62
2019-05-14T10:22:05.156Z,17.25
2019-05-14T10:23:05.321Z,17.31
2019-05-14T10:24:05.643Z,17.31
2019-05-14T10:25:05.726Z,17.56
2019-05-14T10:26:05.803Z,17.94
2019-05-14T10:27:08.619Z,17.75
2019-05-14T10:28:05.554Z,17.69
2019-05-14T10:29:08.488Z,17.94
2019-05-14T10:30:05.180Z,17.69
2019-05-14T10:31:05.957Z,17.31
2019-05-14T10:32:05.493Z,17.56
2019-05-14T10:33:10.167Z,16.88
2019-05-14T10:34:05.326Z,16.88
2019-05-14T10:35:08.372Z,16.62
2019-05-14T10:36:05.558Z,16.62
2019-05-14T10:37:07.942Z,16.62
2019-05-14T10:38:05.165Z,16.38
2019-05-14T10:39:05.326Z,15.94
2019-05-14T10:40:05.998Z,15.69
2019-05-14T10:41:05.176Z,15.56
2019-05-14T10:42:05.250Z,15.44
2019-05-14T10:43:05.566Z,15.38
2019-05-14T10:44:05.655Z,15.38
2019-05-14T10:45:09.968Z,15.31
2019-05-14T10:46:05.410Z,15.25
2019-05-14T10:47:05.877Z,15.25
2019-05-14T10:48:05.810Z,15.19
2019-05-14T10:49:16.286Z,15.25
2019-05-14T10:50:05.176Z,15.31
2019-05-14T10:51:05.152Z,15.38
2019-05-14T10:52:05.252Z,15.50
2019-05-14T10:53:05.348Z,15.50
2019-05-14T10:54:20.826Z,15.94
2019-05-14T10:55:05.159Z,15.88
2019-05-14T10:56:05.667Z,15.69
2019-05-14T10:57:05.882Z,15.50
2019-05-14T10:58:05.159Z,15.19
2019-05-14T10:59:05.975Z,15.00
2019-05-14T11:00:08.762Z,14.62
2019-05-14T11:01:05.324Z,14.31
2019-05-14T11:02:05.720Z,13.94
2019-05-14T11:03:05.562Z,13.56
2019-05-14T11:04:05.087Z,13.38
2019-05-14T11:05:05.558Z,13.31
2019-05-14T11:06:05.260Z,13.56
2019-05-14T11:07:05.401Z,13.44
2019-05-14T11:08:06.053Z,13.31
2019-05-14T11:09:05.401Z,13.19
2019-05-14T11:10:05.645Z,13.06
2019-05-14T11:11:05.889Z,13.00
2019-05-14T11:12:05.496Z,13.06
2019-05-14T11:13:08.424Z,12.94
2019-05-14T11:14:05.082Z,13.00
2019-05-14T11:15:05.336Z,13.00
2019-05-14T11:16:05.424Z,12.94
2019-05-14T11:17:05.638Z,13.25
2019-05-14T11:18:05.334Z,13.12
2019-05-14T11:19:05.480Z,13.31
2019-05-14T11:20:07.947Z,13.25
2019-05-14T11:21:19.524Z,13.19
2019-05-14T11:22:05.806Z,13.12
2019-05-14T11:23:05.391Z,13.06
2019-05-14T11:24:05.644Z,13.06
2019-05-14T11:25:05.874Z,13.12
2019-05-14T11:26:05.711Z,13.31
2019-05-14T11:27:05.649Z,13.19
2019-05-14T11:28:05.903Z,13.19
2019-05-14T11:29:06.030Z,13.12
2019-05-14T11:30:05.278Z,13.19
2019-05-14T11:31:05.441Z,13.19
2019-05-14T11:32:05.559Z,13.19
2019-05-14T11:33:05.476Z,13.12
2019-05-14T11:34:08.059Z,12.81
2019-05-14T11:35:05.327Z,12.56
2019-05-14T11:36:09.001Z,12.31
2019-05-14T11:37:08.338Z,12.06
2019-05-14T11:38:23.975Z,11.88
2019-05-14T11:39:05.654Z,11.88
2019-05-14T11:40:05.972Z,11.94
2019-05-14T11:41:05.170Z,11.88
2019-05-14T11:42:05.324Z,11.88
2019-05-14T11:43:08.230Z,11.88
2019-05-14T11:44:05.736Z,11.75
2019-05-14T11:45:05.734Z,11.75
2019-05-14T11:46:05.090Z,11.56
2019-05-14T11:47:05.157Z,11.50
2019-05-14T11:48:05.558Z,11.44
2019-05-14T11:49:05.510Z,11.44
2019-05-14T11:50:05.493Z,11.44
2019-05-14T11:51:08.764Z,11.50
2019-05-14T11:52:08.369Z,11.50
2019-05-14T11:53:05.243Z,11.44
2019-05-14T11:54:05.964Z,11.50
2019-05-14T11:55:05.878Z,11.62
2019-05-14T11:56:05.231Z,11.69
2019-05-14T11:57:05.249Z,11.75
2019-05-14T11:58:05.274Z,11.81
2019-05-14T11:59:08.146Z,11.88
2019-05-14T12:00:05.728Z,12.00
2019-05-14T12:01:05.894Z,11.94
2019-05-14T12:02:09.961Z,11.94
2019-05-14T12:03:05.489Z,11.94
2019-05-14T12:04:08.692Z,11.94
2019-05-14T12:05:05.239Z,12.00
2019-05-14T12:06:05.401Z,12.00
2019-05-14T12:07:05.308Z,11.94
2019-05-14T12:08:05.409Z,12.06
2019-05-14T12:09:05.416Z,12.12
2019-05-14T12:10:05.818Z,12.06
2019-05-14T12:11:08.608Z,12.00
2019-05-14T12:12:05.245Z,11.94
2019-05-14T12:13:08.294Z,11.94
2019-05-14T12:14:05.086Z,11.88
2019-05-14T12:15:05.241Z,11.88
2019-05-14T12:16:08.329Z,11.81
2019-05-14T12:17:05.267Z,11.81
2019-05-14T12:18:05.553Z,11.69
2019-05-14T12:19:05.899Z,11.69
2019-05-14T12:20:05.150Z,11.62
2019-05-14T12:21:05.490Z,11.62
2019-05-14T12:22:08.283Z,11.56
2019-05-14T12:23:08.660Z,11.50
2019-05-14T12:24:06.582Z,11.44
2019-05-14T12:25:08.090Z,11.38
2019-05-14T12:26:05.725Z,11.38
2019-05-14T12:27:08.555Z,11.38
2019-05-14T12:28:05.463Z,11.44
2019-05-14T12:29:05.172Z,11.62
2019-05-14T12:30:05.411Z,11.94
2019-05-14T12:31:05.786Z,11.88
2019-05-14T12:32:05.718Z,11.75
2019-05-14T12:33:05.413Z,11.62
2019-05-14T12:34:05.566Z,11.56
2019-05-14T12:35:05.010Z,11.56
2019-05-14T12:36:05.102Z,11.62
2019-05-14T12:37:05.721Z,11.56
2019-05-14T12:38:05.314Z,11.44
2019-05-14T12:39:05.551Z,11.44
2019-05-14T12:40:05.148Z,11.44
2019-05-14T12:41:05.161Z,11.44
2019-05-14T12:42:05.319Z,11.44
2019-05-14T12:43:05.660Z,11.38
2019-05-14T12:44:08.936Z,11.44
2019-05-14T12:45:05.320Z,11.44
2019-05-14T12:46:05.712Z,11.75
2019-05-14T12:47:09.347Z,11.94
2019-05-14T12:48:05.089Z,12.19
2019-05-14T12:49:05.926Z,12.19
2019-05-14T12:50:05.094Z,12.06
2019-05-14T12:51:05.876Z,12.00
2019-05-14T12:52:18.827Z,12.00
2019-05-14T12:53:08.216Z,11.94
2019-05-14T12:54:05.978Z,11.88
2019-05-14T12:55:05.419Z,11.81
2019-05-14T12:56:08.306Z,11.81
2019-05-14T12:57:05.728Z,11.81
2019-05-14T12:58:05.406Z,11.88
2019-05-14T12:59:05.424Z,11.88
2019-05-14T13:00:05.930Z,11.94
2019-05-14T13:01:08.501Z,11.88
2019-05-14T13:02:09.162Z,11.88